sensor_id;sensor_type;location;lat;lon;timestamp;pressure;altitude;pressure_sealevel;temperature;humidity
78890;BME280;68279;48.964;14.502;2024-01-15T12:55:55;95422.00;;;-0.06;73.97
78890;BME280;68279;48.964;14.502;2024-01-15T12:58:21;95422.19;;;-0.17;75.27
78890;BME280;68279;48.964;14.502;2024-01-15T13:00:46;95408.75;;;-0.21;74.73
78890;BME280;68279;48.964;14.502;2024-01-15T13:03:13;95421.94;;;-0.16;75.00
78890;BME280;68279;48.964;14.502;2024-01-15T13:05:40;95401.91;;;-0.22;76.35
78890;BME280;68279;48.964;14.502;2024-01-15T13:08:06;95408.47;;;-0.19;75.37
78890;BME280;68279;48.964;14.502;2024-01-15T13:10:32;95412.00;;;-0.09;74.62
78890;BME280;68279;48.964;14.502;2024-01-15T13:12:58;95410.56;;;-0.21;74.34
78890;BME280;68279;48.964;14.502;2024-01-15T13:15:23;95395.88;;;-0.22;74.03
78890;BME280;68279;48.964;14.502;2024-01-15T13:17:49;95409.78;;;-0.22;75.73
78890;BME280;68279;48.964;14.502;2024-01-15T13:20:15;95418.75;;;-0.18;73.64
78890;BME280;68279;48.964;14.502;2024-01-15T13:22:40;95405.03;;;-0.25;74.57
78890;BME280;68279;48.964;14.502;2024-01-15T13:25:09;95411.56;;;-0.33;74.45
78890;BME280;68279;48.964;14.502;2024-01-15T13:27:37;95407.63;;;-0.30;75.12
78890;BME280;68279;48.964;14.502;2024-01-15T13:30:03;95406.56;;;-0.29;74.82
78890;BME280;68279;48.964;14.502;2024-01-15T13:32:29;95400.00;;;-0.32;74.47
78890;BME280;68279;48.964;14.502;2024-01-15T13:34:56;95402.56;;;-0.42;75.64
78890;BME280;68279;48.964;14.502;2024-01-15T13:37:22;95387.06;;;-0.38;75.48
78890;BME280;68279;48.964;14.502;2024-01-15T13:39:50;95397.03;;;-0.40;76.08
78890;BME280;68279;48.964;14.502;2024-01-15T13:42:17;95387.88;;;-0.38;75.43
78890;BME280;68279;48.964;14.502;2024-01-15T13:44:43;95392.03;;;-0.42;75.51
78890;BME280;68279;48.964;14.502;2024-01-15T13:47:09;95391.25;;;-0.42;76.12
78890;BME280;68279;48.964;14.502;2024-01-15T13:49:35;95394.13;;;-0.44;76.56
78890;BME280;68279;48.964;14.502;2024-01-15T13:52:05;95394.47;;;-0.35;75.02
78890;BME280;68279;48.964;14.502;2024-01-15T13:54:31;95404.41;;;-0.37;75.32
78890;BME280;68279;48.964;14.502;2024-01-15T13:56:56;95403.03;;;-0.45;76.29
78890;BME280;68279;48.964;14.502;2024-01-15T13:59:22;95399.38;;;-0.44;75.40
78890;BME280;68279;48.964;14.502;2024-01-15T14:01:48;95388.13;;;-0.39;76.03
78890;BME280;68279;48.964;14.502;2024-01-15T14:04:14;95399.94;;;-0.42;76.04
78890;BME280;68279;48.964;14.502;2024-01-15T14:06:39;95394.88;;;-0.48;76.69
78890;BME280;68279;48.964;14.502;2024-01-15T14:09:05;95393.09;;;-0.43;76.28
78890;BME280;68279;48.964;14.502;2024-01-15T14:11:31;95393.16;;;-0.33;75.28
78890;BME280;68279;48.964;14.502;2024-01-15T14:13:56;95383.31;;;-0.47;77.27
78890;BME280;68279;48.964;14.502;2024-01-15T14:16:22;95398.69;;;-0.34;75.72
78890;BME280;68279;48.964;14.502;2024-01-15T14:18:48;95402.56;;;-0.42;75.92
78890;BME280;68279;48.964;14.502;2024-01-15T14:21:13;95402.28;;;-0.40;75.97
78890;BME280;68279;48.964;14.502;2024-01-15T14:23:39;95403.09;;;-0.40;76.10
78890;BME280;68279;48.964;14.502;2024-01-15T14:26:05;95410.72;;;-0.38;75.23
78890;BME280;68279;48.964;14.502;2024-01-15T14:28:31;95409.38;;;-0.41;76.65
78890;BME280;68279;48.964;14.502;2024-01-15T14:30:56;95417.22;;;-0.46;76.32
78890;BME280;68279;48.964;14.502;2024-01-15T14:33:24;95429.00;;;-0.48;76.25
78890;BME280;68279;48.964;14.502;2024-01-15T14:35:50;95421.91;;;-0.53;76.88
78890;BME280;68279;48.964;14.502;2024-01-15T14:38:16;95427.63;;;-0.56;77.14
78890;BME280;68279;48.964;14.502;2024-01-15T14:40:41;95435.31;;;-0.49;77.15
78890;BME280;68279;48.964;14.502;2024-01-15T14:43:07;95425.59;;;-0.49;77.00
78890;BME280;68279;48.964;14.502;2024-01-15T14:45:33;95434.81;;;-0.46;76.75
78890;BME280;68279;48.964;14.502;2024-01-15T14:47:59;95432.69;;;-0.49;75.98
78890;BME280;68279;48.964;14.502;2024-01-15T14:50:25;95425.78;;;-0.55;77.71
78890;BME280;68279;48.964;14.502;2024-01-15T14:52:50;95431.56;;;-0.59;77.98
78890;BME280;68279;48.964;14.502;2024-01-15T14:55:16;95432.63;;;-0.54;77.54
78890;BME280;68279;48.964;14.502;2024-01-15T14:57:41;95434.19;;;-0.53;77.01
78890;BME280;68279;48.964;14.502;2024-01-15T15:00:07;95442.06;;;-0.59;77.92
78890;BME280;68279;48.964;14.502;2024-01-15T15:02:35;95437.53;;;-0.63;78.21
78890;BME280;68279;48.964;14.502;2024-01-15T15:05:02;95447.22;;;-0.69;78.87
78890;BME280;68279;48.964;14.502;2024-01-15T15:07:27;95447.03;;;-0.57;76.81
78890;BME280;68279;48.964;14.502;2024-01-15T15:09:53;95446.31;;;-0.52;77.54
78890;BME280;68279;48.964;14.502;2024-01-15T15:12:19;95449.41;;;-0.55;76.95
78890;BME280;68279;48.964;14.502;2024-01-15T15:14:44;95448.44;;;-0.49;76.23
78890;BME280;68279;48.964;14.502;2024-01-15T15:17:10;95447.66;;;-0.50;75.94
78890;BME280;68279;48.964;14.502;2024-01-15T15:19:35;95445.63;;;-0.38;74.81
78890;BME280;68279;48.964;14.502;2024-01-15T15:22:01;95445.63;;;-0.38;75.26
78890;BME280;68279;48.964;14.502;2024-01-15T15:24:27;95446.88;;;-0.45;75.60
78890;BME280;68279;48.964;14.502;2024-01-15T15:26:53;95449.97;;;-0.53;75.85
78890;BME280;68279;48.964;14.502;2024-01-15T15:29:19;95453.59;;;-0.60;76.50
78890;BME280;68279;48.964;14.502;2024-01-15T15:31:45;95456.50;;;-0.56;76.87
78890;BME280;68279;48.964;14.502;2024-01-15T15:34:10;95454.94;;;-0.57;75.98
78890;BME280;68279;48.964;14.502;2024-01-15T15:36:36;95460.97;;;-0.57;76.73
78890;BME280;68279;48.964;14.502;2024-01-15T15:39:02;95460.69;;;-0.60;76.00
78890;BME280;68279;48.964;14.502;2024-01-15T15:41:28;95464.38;;;-0.56;76.27
78890;BME280;68279;48.964;14.502;2024-01-15T15:43:54;95468.31;;;-0.59;76.44
78890;BME280;68279;48.964;14.502;2024-01-15T15:46:20;95467.91;;;-0.72;78.25
78890;BME280;68279;48.964;14.502;2024-01-15T15:48:46;95471.91;;;-0.92;82.23
78890;BME280;68279;48.964;14.502;2024-01-15T15:51:11;95466.19;;;-1.10;84.04
78890;BME280;68279;48.964;14.502;2024-01-15T15:53:37;95473.97;;;-1.16;85.26
78890;BME280;68279;48.964;14.502;2024-01-15T15:56:03;95466.31;;;-1.22;85.65
78890;BME280;68279;48.964;14.502;2024-01-15T15:58:29;95468.13;;;-1.23;86.39
78890;BME280;68279;48.964;14.502;2024-01-15T16:00:55;95471.66;;;-1.34;88.21
78890;BME280;68279;48.964;14.502;2024-01-15T16:03:21;95475.31;;;-1.35;88.17
78890;BME280;68279;48.964;14.502;2024-01-15T16:05:46;95475.81;;;-1.38;89.05
78890;BME280;68279;48.964;14.502;2024-01-15T16:08:13;95470.03;;;-1.40;89.02
78890;BME280;68279;48.964;14.502;2024-01-15T16:10:38;95472.69;;;-1.35;88.90
78890;BME280;68279;48.964;14.502;2024-01-15T16:13:04;95472.16;;;-1.37;88.48
78890;BME280;68279;48.964;14.502;2024-01-15T16:15:30;95470.25;;;-1.42;88.56
78890;BME280;68279;48.964;14.502;2024-01-15T16:17:56;95472.22;;;-1.32;88.12
78890;BME280;68279;48.964;14.502;2024-01-15T16:20:21;95466.03;;;-1.43;88.75
78890;BME280;68279;48.964;14.502;2024-01-15T16:22:47;95469.94;;;-1.45;88.83
78890;BME280;68279;48.964;14.502;2024-01-15T16:25:14;95469.94;;;-1.45;88.60
78890;BME280;68279;48.964;14.502;2024-01-15T16:27:40;95468.59;;;-1.48;89.00
78890;BME280;68279;48.964;14.502;2024-01-15T16:30:08;95477.50;;;-1.27;86.04
78890;BME280;68279;48.964;14.502;2024-01-15T16:32:35;95471.72;;;-1.29;85.33
78890;BME280;68279;48.964;14.502;2024-01-15T16:35:01;95469.44;;;-1.42;87.01
78890;BME280;68279;48.964;14.502;2024-01-15T16:37:28;95473.44;;;-1.39;86.49
78890;BME280;68279;48.964;14.502;2024-01-15T16:39:54;95479.88;;;-1.25;85.63
78890;BME280;68279;48.964;14.502;2024-01-15T16:42:19;95485.13;;;-1.47;87.63
78890;BME280;68279;48.964;14.502;2024-01-15T16:44:45;95481.59;;;-1.58;88.00
78890;BME280;68279;48.964;14.502;2024-01-15T16:47:11;95480.16;;;-1.65;88.93
78890;BME280;68279;48.964;14.502;2024-01-15T16:49:36;95471.91;;;-1.74;90.09
78890;BME280;68279;48.964;14.502;2024-01-15T16:52:02;95477.00;;;-1.84;91.15
78890;BME280;68279;48.964;14.502;2024-01-15T16:54:31;95475.75;;;-1.98;92.19
78890;BME280;68279;48.964;14.502;2024-01-15T16:56:56;95477.28;;;-2.03;92.53
78890;BME280;68279;48.964;14.502;2024-01-15T16:59:22;95477.03;;;-2.01;92.82
78890;BME280;68279;48.964;14.502;2024-01-15T17:01:47;95463.38;;;-2.03;93.10
78890;BME280;68279;48.964;14.502;2024-01-15T17:04:13;95469.63;;;-2.04;92.88
78890;BME280;68279;48.964;14.502;2024-01-15T17:06:39;95464.88;;;-2.07;93.08
78890;BME280;68279;48.964;14.502;2024-01-15T17:09:04;95471.25;;;-2.03;92.97
78890;BME280;68279;48.964;14.502;2024-01-15T17:11:30;95467.50;;;-2.07;92.59
78890;BME280;68279;48.964;14.502;2024-01-15T17:13:56;95473.75;;;-2.08;92.77
78890;BME280;68279;48.964;14.502;2024-01-15T17:16:21;95474.41;;;-2.01;92.43
78890;BME280;68279;48.964;14.502;2024-01-15T17:18:47;95476.53;;;-1.98;92.22
78890;BME280;68279;48.964;14.502;2024-01-15T17:21:13;95482.97;;;-1.89;91.84
78890;BME280;68279;48.964;14.502;2024-01-15T17:23:39;95479.47;;;-1.94;92.02
78890;BME280;68279;48.964;14.502;2024-01-15T17:26:04;95484.69;;;-1.94;92.25
78890;BME280;68279;48.964;14.502;2024-01-15T17:28:30;95483.34;;;-1.97;92.58
78890;BME280;68279;48.964;14.502;2024-01-15T17:30:56;95481.78;;;-1.98;92.95
78890;BME280;68279;48.964;14.502;2024-01-15T17:33:22;95485.03;;;-2.08;93.53
78890;BME280;68279;48.964;14.502;2024-01-15T17:35:52;95478.75;;;-2.07;93.89
78890;BME280;68279;48.964;14.502;2024-01-15T17:38:22;95473.22;;;-2.10;94.20
78890;BME280;68279;48.964;14.502;2024-01-15T17:40:47;95480.09;;;-2.04;94.37
78890;BME280;68279;48.964;14.502;2024-01-15T17:43:13;95479.25;;;-2.10;94.79
78890;BME280;68279;48.964;14.502;2024-01-15T17:45:39;95482.41;;;-2.08;94.81
78890;BME280;68279;48.964;14.502;2024-01-15T17:48:05;95487.16;;;-2.05;94.58
78890;BME280;68279;48.964;14.502;2024-01-15T17:50:31;95487.50;;;-2.01;94.26
78890;BME280;68279;48.964;14.502;2024-01-15T17:53:00;95490.19;;;-2.13;94.86
78890;BME280;68279;48.964;14.502;2024-01-15T17:55:27;95490.66;;;-1.99;94.49
78890;BME280;68279;48.964;14.502;2024-01-15T17:57:53;95498.13;;;-2.24;95.02
78890;BME280;68279;48.964;14.502;2024-01-15T18:00:19;95498.91;;;-2.24;94.94
78890;BME280;68279;48.964;14.502;2024-01-15T18:02:46;95498.66;;;-2.22;94.57
78890;BME280;68279;48.964;14.502;2024-01-15T18:05:11;95507.69;;;-2.30;94.70
78890;BME280;68279;48.964;14.502;2024-01-15T18:07:39;95507.66;;;-2.18;94.63
78890;BME280;68279;48.964;14.502;2024-01-15T18:10:06;95504.94;;;-2.23;93.98
78890;BME280;68279;48.964;14.502;2024-01-15T18:12:33;95505.66;;;-2.28;93.99
78890;BME280;68279;48.964;14.502;2024-01-15T18:15:00;95515.91;;;-2.10;92.82
78890;BME280;68279;48.964;14.502;2024-01-15T18:17:25;95506.59;;;-2.34;93.45
78890;BME280;68279;48.964;14.502;2024-01-15T18:19:52;95511.13;;;-2.46;94.26
78890;BME280;68279;48.964;14.502;2024-01-15T18:22:20;95506.72;;;-2.58;94.73
78890;BME280;68279;48.964;14.502;2024-01-15T18:24:48;95507.09;;;-2.66;95.09
78890;BME280;68279;48.964;14.502;2024-01-15T18:27:14;95517.06;;;-2.79;95.08
78890;BME280;68279;48.964;14.502;2024-01-15T18:29:43;95520.22;;;-2.77;94.44
78890;BME280;68279;48.964;14.502;2024-01-15T18:32:08;95526.44;;;-2.38;92.03
78890;BME280;68279;48.964;14.502;2024-01-15T18:34:35;95532.44;;;-1.92;87.91
78890;BME280;68279;48.964;14.502;2024-01-15T18:37:01;95539.53;;;-2.21;88.57
78890;BME280;68279;48.964;14.502;2024-01-15T18:39:26;95538.06;;;-2.01;87.04
78890;BME280;68279;48.964;14.502;2024-01-15T18:41:52;95530.22;;;-1.67;84.39
78890;BME280;68279;48.964;14.502;2024-01-15T18:44:19;95534.13;;;-1.31;81.83
78890;BME280;68279;48.964;14.502;2024-01-15T18:46:45;95528.75;;;-1.19;81.25
78890;BME280;68279;48.964;14.502;2024-01-15T18:49:13;95537.97;;;-1.17;80.70
78890;BME280;68279;48.964;14.502;2024-01-15T18:51:40;95540.84;;;-1.18;80.70
78890;BME280;68279;48.964;14.502;2024-01-15T18:54:06;95541.84;;;-1.02;79.83
78890;BME280;68279;48.964;14.502;2024-01-15T18:56:31;95541.25;;;-0.88;78.81
78890;BME280;68279;48.964;14.502;2024-01-15T18:59:01;95548.34;;;-0.83;78.44
78890;BME280;68279;48.964;14.502;2024-01-15T19:01:27;95545.63;;;-0.93;79.14
78890;BME280;68279;48.964;14.502;2024-01-15T19:03:55;95551.66;;;-0.93;79.56
78890;BME280;68279;48.964;14.502;2024-01-15T19:06:21;95555.50;;;-1.00;79.85
78890;BME280;68279;48.964;14.502;2024-01-15T19:08:47;95560.50;;;-0.99;80.21
78890;BME280;68279;48.964;14.502;2024-01-15T19:11:13;95558.38;;;-1.02;80.51
78890;BME280;68279;48.964;14.502;2024-01-15T19:13:40;95553.00;;;-0.90;79.65
78890;BME280;68279;48.964;14.502;2024-01-15T19:16:05;95571.00;;;-0.99;80.25
78890;BME280;68279;48.964;14.502;2024-01-15T19:18:32;95570.47;;;-0.79;79.07
78890;BME280;68279;48.964;14.502;2024-01-15T19:20:57;95585.47;;;-0.96;79.99
78890;BME280;68279;48.964;14.502;2024-01-15T19:23:23;95585.31;;;-1.06;81.17
78890;BME280;68279;48.964;14.502;2024-01-15T19:25:48;95584.38;;;-1.17;82.56
78890;BME280;68279;48.964;14.502;2024-01-15T19:28:14;95586.81;;;-0.94;80.33
78890;BME280;68279;48.964;14.502;2024-01-15T19:30:40;95589.44;;;-0.94;79.17
78890;BME280;68279;48.964;14.502;2024-01-15T19:33:07;95586.13;;;-1.06;79.53
78890;BME280;68279;48.964;14.502;2024-01-15T19:35:33;95580.50;;;-1.15;80.72
78890;BME280;68279;48.964;14.502;2024-01-15T19:37:59;95577.41;;;-1.11;80.61
78890;BME280;68279;48.964;14.502;2024-01-15T19:40:27;95591.47;;;-1.18;82.12
78890;BME280;68279;48.964;14.502;2024-01-15T19:42:53;95601.91;;;-1.23;82.05
78890;BME280;68279;48.964;14.502;2024-01-15T19:45:19;95608.16;;;-1.24;82.70
78890;BME280;68279;48.964;14.502;2024-01-15T19:47:44;95613.50;;;-1.19;82.53
78890;BME280;68279;48.964;14.502;2024-01-15T19:50:13;95621.28;;;-1.24;84.26
78890;BME280;68279;48.964;14.502;2024-01-15T19:52:39;95623.28;;;-1.31;85.12
78890;BME280;68279;48.964;14.502;2024-01-15T19:55:05;95612.47;;;-1.34;85.06
78890;BME280;68279;48.964;14.502;2024-01-15T19:57:31;95618.44;;;-1.22;83.97
78890;BME280;68279;48.964;14.502;2024-01-15T19:59:58;95617.94;;;-1.19;83.21
78890;BME280;68279;48.964;14.502;2024-01-15T20:02:25;95619.22;;;-1.22;83.56
78890;BME280;68279;48.964;14.502;2024-01-15T20:04:50;95623.19;;;-1.19;82.78
78890;BME280;68279;48.964;14.502;2024-01-15T20:07:16;95634.88;;;-1.27;82.10
78890;BME280;68279;48.964;14.502;2024-01-15T20:09:41;95636.53;;;-1.21;81.31
78890;BME280;68279;48.964;14.502;2024-01-15T20:12:07;95630.81;;;-1.18;80.65
78890;BME280;68279;48.964;14.502;2024-01-15T20:14:33;95630.81;;;-1.18;79.49
78890;BME280;68279;48.964;14.502;2024-01-15T20:17:00;95636.78;;;-1.05;78.66
78890;BME280;68279;48.964;14.502;2024-01-15T20:19:26;95653.06;;;-1.03;77.13
78890;BME280;68279;48.964;14.502;2024-01-15T20:21:52;95639.16;;;-1.04;76.98
78890;BME280;68279;48.964;14.502;2024-01-15T20:24:18;95641.00;;;-1.21;78.16
78890;BME280;68279;48.964;14.502;2024-01-15T20:26:46;95650.94;;;-1.40;78.96
78890;BME280;68279;48.964;14.502;2024-01-15T20:29:12;95642.84;;;-1.22;77.07
78890;BME280;68279;48.964;14.502;2024-01-15T20:31:39;95642.31;;;-1.02;74.98
78890;BME280;68279;48.964;14.502;2024-01-15T20:34:05;95645.06;;;-1.13;75.28
78890;BME280;68279;48.964;14.502;2024-01-15T20:36:31;95659.66;;;-1.34;76.36
78890;BME280;68279;48.964;14.502;2024-01-15T20:38:57;95655.75;;;-1.15;75.38
78890;BME280;68279;48.964;14.502;2024-01-15T20:41:24;95662.44;;;-1.24;75.12
78890;BME280;68279;48.964;14.502;2024-01-15T20:43:50;95665.00;;;-1.46;76.01
78890;BME280;68279;48.964;14.502;2024-01-15T20:46:15;95660.31;;;-1.44;75.92
78890;BME280;68279;48.964;14.502;2024-01-15T20:48:41;95661.41;;;-1.57;76.87
78890;BME280;68279;48.964;14.502;2024-01-15T20:51:09;95657.59;;;-1.66;77.44
78890;BME280;68279;48.964;14.502;2024-01-15T20:53:35;95662.34;;;-1.63;76.87
78890;BME280;68279;48.964;14.502;2024-01-15T20:56:00;95664.28;;;-1.58;76.49
78890;BME280;68279;48.964;14.502;2024-01-15T20:58:26;95663.41;;;-1.47;75.59
78890;BME280;68279;48.964;14.502;2024-01-15T21:00:53;95670.47;;;-1.64;76.11
78890;BME280;68279;48.964;14.502;2024-01-15T21:03:19;95667.75;;;-1.69;76.17
78890;BME280;68279;48.964;14.502;2024-01-15T21:05:47;95682.22;;;-1.67;76.31
78890;BME280;68279;48.964;14.502;2024-01-15T21:08:15;95681.69;;;-1.81;76.57
78890;BME280;68279;48.964;14.502;2024-01-15T21:10:40;95703.13;;;-1.55;75.04
78890;BME280;68279;48.964;14.502;2024-01-15T21:13:06;95692.13;;;-1.69;75.78
78890;BME280;68279;48.964;14.502;2024-01-15T21:15:33;95699.75;;;-1.96;76.55
78890;BME280;68279;48.964;14.502;2024-01-15T21:17:58;95704.13;;;-2.02;76.88
78890;BME280;68279;48.964;14.502;2024-01-15T21:20:25;95705.16;;;-2.03;76.67
78890;BME280;68279;48.964;14.502;2024-01-15T21:22:52;95714.56;;;-1.90;75.54
78890;BME280;68279;48.964;14.502;2024-01-15T21:25:18;95717.78;;;-2.00;75.84
78890;BME280;68279;48.964;14.502;2024-01-15T21:27:45;95716.66;;;-1.75;75.23
78890;BME280;68279;48.964;14.502;2024-01-15T21:30:12;95728.19;;;-1.76;74.97
78890;BME280;68279;48.964;14.502;2024-01-15T21:32:41;95736.13;;;-2.00;75.90
78890;BME280;68279;48.964;14.502;2024-01-15T21:35:07;95724.50;;;-2.04;76.71
78890;BME280;68279;48.964;14.502;2024-01-15T21:37:32;95728.69;;;-1.62;75.89
78890;BME280;68279;48.964;14.502;2024-01-15T21:39:58;95726.56;;;-1.77;76.45
78890;BME280;68279;48.964;14.502;2024-01-15T21:42:24;95734.78;;;-1.74;77.31
78890;BME280;68279;48.964;14.502;2024-01-15T21:44:49;95728.50;;;-1.73;77.90
78890;BME280;68279;48.964;14.502;2024-01-15T21:47:15;95727.72;;;-1.73;78.68
78890;BME280;68279;48.964;14.502;2024-01-15T21:49:41;95728.31;;;-1.83;79.45
78890;BME280;68279;48.964;14.502;2024-01-15T21:52:06;95730.44;;;-1.51;78.50
78890;BME280;68279;48.964;14.502;2024-01-15T21:54:32;95745.47;;;-1.47;78.72
78890;BME280;68279;48.964;14.502;2024-01-15T21:56:58;95737.47;;;-1.40;78.09
78890;BME280;68279;48.964;14.502;2024-01-15T21:59:23;95746.63;;;-1.26;77.59
78890;BME280;68279;48.964;14.502;2024-01-15T22:01:51;95761.91;;;-1.23;77.48
78890;BME280;68279;48.964;14.502;2024-01-15T22:04:21;95765.47;;;-1.12;76.92
78890;BME280;68279;48.964;14.502;2024-01-15T22:06:47;95750.78;;;-1.13;77.09
78890;BME280;68279;48.964;14.502;2024-01-15T22:09:12;95743.47;;;-1.11;76.70
78890;BME280;68279;48.964;14.502;2024-01-15T22:11:38;95747.81;;;-1.17;77.17
78890;BME280;68279;48.964;14.502;2024-01-15T22:14:03;95753.94;;;-1.28;77.02
78890;BME280;68279;48.964;14.502;2024-01-15T22:16:30;95761.03;;;-1.11;75.71
78890;BME280;68279;48.964;14.502;2024-01-15T22:18:55;95761.16;;;-1.18;76.44
78890;BME280;68279;48.964;14.502;2024-01-15T22:21:21;95775.50;;;-1.09;75.72
78890;BME280;68279;48.964;14.502;2024-01-15T22:23:46;95775.88;;;-1.17;76.43
78890;BME280;68279;48.964;14.502;2024-01-15T22:26:12;95773.00;;;-1.32;77.92
78890;BME280;68279;48.964;14.502;2024-01-15T22:28:39;95781.69;;;-1.32;78.50
78890;BME280;68279;48.964;14.502;2024-01-15T22:31:05;95786.69;;;-1.30;78.43
78890;BME280;68279;48.964;14.502;2024-01-15T22:33:31;95796.63;;;-1.32;79.22
78890;BME280;68279;48.964;14.502;2024-01-15T22:35:57;95789.75;;;-1.33;79.61
78890;BME280;68279;48.964;14.502;2024-01-15T22:38:23;95791.13;;;-1.31;79.54
78890;BME280;68279;48.964;14.502;2024-01-15T22:40:49;95798.91;;;-1.36;80.07
78890;BME280;68279;48.964;14.502;2024-01-15T22:43:14;95807.09;;;-1.32;80.05
78890;BME280;68279;48.964;14.502;2024-01-15T22:45:40;95806.53;;;-1.34;80.20
78890;BME280;68279;48.964;14.502;2024-01-15T22:48:05;95811.25;;;-1.48;81.06
78890;BME280;68279;48.964;14.502;2024-01-15T22:50:31;95818.09;;;-1.47;81.42
78890;BME280;68279;48.964;14.502;2024-01-15T22:52:57;95832.25;;;-1.48;81.68
78890;BME280;68279;48.964;14.502;2024-01-15T22:55:23;95825.47;;;-1.32;80.42
78890;BME280;68279;48.964;14.502;2024-01-15T22:57:48;95829.19;;;-1.28;79.52
78890;BME280;68279;48.964;14.502;2024-01-15T23:00:14;95827.38;;;-1.28;79.40
78890;BME280;68279;48.964;14.502;2024-01-15T23:02:49;95843.66;;;-1.26;79.39
78890;BME280;68279;48.964;14.502;2024-01-15T23:05:15;95835.41;;;-1.18;77.89
78890;BME280;68279;48.964;14.502;2024-01-15T23:07:41;95837.00;;;-1.17;77.75
78890;BME280;68279;48.964;14.502;2024-01-15T23:10:07;95859.63;;;-1.27;78.58
78890;BME280;68279;48.964;14.502;2024-01-15T23:12:37;95851.03;;;-1.11;77.64
78890;BME280;68279;48.964;14.502;2024-01-15T23:15:03;95855.47;;;-1.11;77.46
78890;BME280;68279;48.964;14.502;2024-01-15T23:17:32;95865.06;;;-1.17;77.39
78890;BME280;68279;48.964;14.502;2024-01-15T23:19:57;95880.91;;;-1.12;77.80
78890;BME280;68279;48.964;14.502;2024-01-15T23:22:23;95869.88;;;-1.14;77.88
78890;BME280;68279;48.964;14.502;2024-01-15T23:24:48;95871.03;;;-1.22;78.47
78890;BME280;68279;48.964;14.502;2024-01-15T23:27:15;95867.59;;;-1.22;78.78
78890;BME280;68279;48.964;14.502;2024-01-15T23:29:40;95873.66;;;-1.22;79.05
78890;BME280;68279;48.964;14.502;2024-01-15T23:32:06;95871.47;;;-1.25;79.75
78890;BME280;68279;48.964;14.502;2024-01-15T23:34:34;95882.56;;;-1.23;79.65
78890;BME280;68279;48.964;14.502;2024-01-15T23:37:00;95895.88;;;-1.24;79.69
78890;BME280;68279;48.964;14.502;2024-01-15T23:39:25;95891.44;;;-1.24;79.27
78890;BME280;68279;48.964;14.502;2024-01-15T23:41:51;95893.59;;;-1.21;79.16
78890;BME280;68279;48.964;14.502;2024-01-15T23:44:17;95903.44;;;-1.28;79.54
78890;BME280;68279;48.964;14.502;2024-01-15T23:46:42;95912.81;;;-1.32;80.23
78890;BME280;68279;48.964;14.502;2024-01-15T23:49:08;95906.06;;;-1.28;79.29
78890;BME280;68279;48.964;14.502;2024-01-15T23:51:33;95901.03;;;-1.29;78.91
78890;BME280;68279;48.964;14.502;2024-01-15T23:53:59;95908.19;;;-1.25;79.06
78890;BME280;68279;48.964;14.502;2024-01-15T23:56:25;95906.72;;;-1.21;78.81
78890;BME280;68279;48.964;14.502;2024-01-15T23:58:50;95911.84;;;-1.26;79.24
